sensor_id;sensor_type;location;lat;lon;timestamp;P1;durP1;ratioP1;P2;durP2;ratioP2
38972;SDS011;25333;50.762;4.470;2023-08-24T00:00:55;3.07;;;1.80;;
38972;SDS011;25333;50.762;4.470;2023-08-24T00:03:20;3.03;;;2.20;;
38972;SDS011;25333;50.762;4.470;2023-08-24T00:05:47;4.72;;;2.47;;
38972;SDS011;25333;50.762;4.470;2023-08-24T00:08:13;4.20;;;2.50;;
38972;SDS011;25333;50.762;4.470;2023-08-24T00:10:42;3.08;;;1.75;;
38972;SDS011;25333;50.762;4.470;2023-08-24T00:13:09;5.38;;;2.28;;
38972;SDS011;25333;50.762;4.470;2023-08-24T00:15:35;4.30;;;2.50;;
38972;SDS011;25333;50.762;4.470;2023-08-24T00:18:01;6.40;;;2.30;;
38972;SDS011;25333;50.762;4.470;2023-08-24T00:20:27;2.83;;;1.88;;
38972;SDS011;25333;50.762;4.470;2023-08-24T00:22:52;3.80;;;2.33;;
38972;SDS011;25333;50.762;4.470;2023-08-24T00:25:18;4.43;;;2.15;;
38972;SDS011;25333;50.762;4.470;2023-08-24T00:27:44;5.38;;;2.60;;
38972;SDS011;25333;50.762;4.470;2023-08-24T00:30:10;2.75;;;1.98;;
38972;SDS011;25333;50.762;4.470;2023-08-24T00:32:36;4.03;;;2.10;;
38972;SDS011;25333;50.762;4.470;2023-08-24T00:35:02;3.45;;;1.80;;
38972;SDS011;25333;50.762;4.470;2023-08-24T00:37:32;4.13;;;2.60;;
38972;SDS011;25333;50.762;4.470;2023-08-24T00:40:01;3.70;;;1.88;;
38972;SDS011;25333;50.762;4.470;2023-08-24T00:42:41;4.10;;;1.85;;
38972;SDS011;25333;50.762;4.470;2023-08-24T00:45:11;6.00;;;2.58;;
38972;SDS011;25333;50.762;4.470;2023-08-24T00:47:40;3.47;;;2.40;;
38972;SDS011;25333;50.762;4.470;2023-08-24T00:50:08;3.75;;;1.80;;
38972;SDS011;25333;50.762;4.470;2023-08-24T00:52:36;3.80;;;2.13;;
38972;SDS011;25333;50.762;4.470;2023-08-24T00:55:04;2.95;;;1.63;;
38972;SDS011;25333;50.762;4.470;2023-08-24T00:57:31;5.43;;;2.35;;
38972;SDS011;25333;50.762;4.470;2023-08-24T00:59:57;3.35;;;1.75;;
38972;SDS011;25333;50.762;4.470;2023-08-24T01:02:26;3.05;;;1.75;;
38972;SDS011;25333;50.762;4.470;2023-08-24T01:04:53;5.40;;;1.97;;
38972;SDS011;25333;50.762;4.470;2023-08-24T01:07:19;3.85;;;2.20;;
38972;SDS011;25333;50.762;4.470;2023-08-24T01:09:46;4.13;;;2.35;;
38972;SDS011;25333;50.762;4.470;2023-08-24T01:17:29;4.05;;;2.08;;
38972;SDS011;25333;50.762;4.470;2023-08-24T01:19:56;4.00;;;2.35;;
38972;SDS011;25333;50.762;4.470;2023-08-24T01:27:29;5.65;;;2.50;;
38972;SDS011;25333;50.762;4.470;2023-08-24T01:29:59;3.88;;;2.10;;
38972;SDS011;25333;50.762;4.470;2023-08-24T01:32:29;3.63;;;1.75;;
38972;SDS011;25333;50.762;4.470;2023-08-24T01:34:56;5.45;;;2.17;;
38972;SDS011;25333;50.762;4.470;2023-08-24T01:37:23;4.72;;;2.85;;
38972;SDS011;25333;50.762;4.470;2023-08-24T01:40:05;4.05;;;2.40;;
38972;SDS011;25333;50.762;4.470;2023-08-24T01:42:35;5.15;;;1.58;;
38972;SDS011;25333;50.762;4.470;2023-08-24T01:45:07;4.53;;;2.20;;
38972;SDS011;25333;50.762;4.470;2023-08-24T01:47:35;3.17;;;1.90;;
38972;SDS011;25333;50.762;4.470;2023-08-24T01:50:03;4.70;;;2.55;;
38972;SDS011;25333;50.762;4.470;2023-08-24T01:52:29;4.40;;;1.80;;
38972;SDS011;25333;50.762;4.470;2023-08-24T01:54:57;4.10;;;2.23;;
38972;SDS011;25333;50.762;4.470;2023-08-24T01:57:23;3.70;;;2.08;;
38972;SDS011;25333;50.762;4.470;2023-08-24T01:59:48;7.00;;;2.67;;
38972;SDS011;25333;50.762;4.470;2023-08-24T02:02:14;3.58;;;2.30;;
38972;SDS011;25333;50.762;4.470;2023-08-24T02:04:39;4.88;;;2.55;;
38972;SDS011;25333;50.762;4.470;2023-08-24T02:07:05;5.50;;;2.33;;
38972;SDS011;25333;50.762;4.470;2023-08-24T02:09:31;4.00;;;2.08;;
38972;SDS011;25333;50.762;4.470;2023-08-24T02:11:56;2.80;;;1.60;;
38972;SDS011;25333;50.762;4.470;2023-08-24T02:14:22;3.17;;;2.20;;
38972;SDS011;25333;50.762;4.470;2023-08-24T02:16:48;2.97;;;2.10;;
38972;SDS011;25333;50.762;4.470;2023-08-24T02:19:13;4.80;;;3.30;;
38972;SDS011;25333;50.762;4.470;2023-08-24T02:21:39;4.17;;;3.43;;
38972;SDS011;25333;50.762;4.470;2023-08-24T02:24:04;5.40;;;3.43;;
38972;SDS011;25333;50.762;4.470;2023-08-24T02:26:31;4.80;;;3.15;;
38972;SDS011;25333;50.762;4.470;2023-08-24T02:28:57;7.88;;;4.20;;
38972;SDS011;25333;50.762;4.470;2023-08-24T02:31:24;5.65;;;3.53;;
38972;SDS011;25333;50.762;4.470;2023-08-24T02:33:50;5.32;;;3.53;;
38972;SDS011;25333;50.762;4.470;2023-08-24T02:36:16;6.88;;;4.00;;
38972;SDS011;25333;50.762;4.470;2023-08-24T02:38:42;7.65;;;4.95;;
38972;SDS011;25333;50.762;4.470;2023-08-24T02:41:07;5.43;;;3.07;;
38972;SDS011;25333;50.762;4.470;2023-08-24T02:43:34;3.83;;;2.78;;
38972;SDS011;25333;50.762;4.470;2023-08-24T02:46:00;4.93;;;2.70;;
38972;SDS011;25333;50.762;4.470;2023-08-24T02:48:28;6.95;;;4.03;;
38972;SDS011;25333;50.762;4.470;2023-08-24T02:50:54;5.63;;;3.22;;
38972;SDS011;25333;50.762;4.470;2023-08-24T02:53:19;5.75;;;3.53;;
38972;SDS011;25333;50.762;4.470;2023-08-24T02:55:45;3.42;;;2.08;;
38972;SDS011;25333;50.762;4.470;2023-08-24T02:58:11;5.97;;;2.85;;
38972;SDS011;25333;50.762;4.470;2023-08-24T03:00:39;3.92;;;2.42;;
38972;SDS011;25333;50.762;4.470;2023-08-24T03:03:05;4.47;;;2.58;;
38972;SDS011;25333;50.762;4.470;2023-08-24T03:05:31;5.07;;;3.10;;
38972;SDS011;25333;50.762;4.470;2023-08-24T03:07:57;5.65;;;2.92;;
38972;SDS011;25333;50.762;4.470;2023-08-24T03:10:23;5.03;;;3.08;;
38972;SDS011;25333;50.762;4.470;2023-08-24T03:12:49;3.72;;;2.55;;
38972;SDS011;25333;50.762;4.470;2023-08-24T03:15:15;6.75;;;4.00;;
38972;SDS011;25333;50.762;4.470;2023-08-24T03:17:41;6.90;;;3.70;;
38972;SDS011;25333;50.762;4.470;2023-08-24T03:20:07;3.88;;;2.63;;
38972;SDS011;25333;50.762;4.470;2023-08-24T03:22:33;3.13;;;2.42;;
38972;SDS011;25333;50.762;4.470;2023-08-24T03:24:59;3.45;;;2.47;;
38972;SDS011;25333;50.762;4.470;2023-08-24T03:27:25;5.03;;;3.03;;
38972;SDS011;25333;50.762;4.470;2023-08-24T03:29:53;6.03;;;2.75;;
38972;SDS011;25333;50.762;4.470;2023-08-24T03:32:19;5.15;;;2.80;;
38972;SDS011;25333;50.762;4.470;2023-08-24T03:34:45;4.13;;;2.88;;
38972;SDS011;25333;50.762;4.470;2023-08-24T03:37:10;4.10;;;2.80;;
38972;SDS011;25333;50.762;4.470;2023-08-24T03:39:36;4.93;;;2.80;;
38972;SDS011;25333;50.762;4.470;2023-08-24T03:42:03;4.20;;;2.78;;
38972;SDS011;25333;50.762;4.470;2023-08-24T03:44:29;3.90;;;2.30;;
38972;SDS011;25333;50.762;4.470;2023-08-24T03:46:54;5.00;;;3.20;;
38972;SDS011;25333;50.762;4.470;2023-08-24T03:49:20;4.78;;;3.22;;
38972;SDS011;25333;50.762;4.470;2023-08-24T03:51:46;4.97;;;3.15;;
38972;SDS011;25333;50.762;4.470;2023-08-24T03:54:11;5.93;;;3.13;;
38972;SDS011;25333;50.762;4.470;2023-08-24T03:56:37;5.80;;;3.67;;
38972;SDS011;25333;50.762;4.470;2023-08-24T03:59:04;5.35;;;3.78;;
38972;SDS011;25333;50.762;4.470;2023-08-24T04:01:29;6.30;;;3.75;;
38972;SDS011;25333;50.762;4.470;2023-08-24T04:03:55;6.15;;;3.90;;
38972;SDS011;25333;50.762;4.470;2023-08-24T04:06:20;6.80;;;4.00;;
38972;SDS011;25333;50.762;4.470;2023-08-24T04:08:46;6.53;;;3.85;;
38972;SDS011;25333;50.762;4.470;2023-08-24T04:11:12;4.37;;;3.30;;
38972;SDS011;25333;50.762;4.470;2023-08-24T04:13:37;4.73;;;3.37;;
38972;SDS011;25333;50.762;4.470;2023-08-24T04:16:03;6.53;;;4.13;;
38972;SDS011;25333;50.762;4.470;2023-08-24T04:18:29;4.67;;;3.23;;
38972;SDS011;25333;50.762;4.470;2023-08-24T04:20:55;6.28;;;3.80;;
38972;SDS011;25333;50.762;4.470;2023-08-24T04:23:24;5.88;;;2.97;;
38972;SDS011;25333;50.762;4.470;2023-08-24T04:25:51;5.57;;;3.30;;
38972;SDS011;25333;50.762;4.470;2023-08-24T04:28:18;4.97;;;3.35;;
38972;SDS011;25333;50.762;4.470;2023-08-24T04:30:50;4.13;;;2.97;;
38972;SDS011;25333;50.762;4.470;2023-08-24T04:33:16;4.57;;;3.00;;
38972;SDS011;25333;50.762;4.470;2023-08-24T04:35:42;6.63;;;3.22;;
38972;SDS011;25333;50.762;4.470;2023-08-24T04:38:08;7.80;;;3.75;;
38972;SDS011;25333;50.762;4.470;2023-08-24T04:40:48;5.30;;;3.08;;
38972;SDS011;25333;50.762;4.470;2023-08-24T04:43:18;5.22;;;3.00;;
38972;SDS011;25333;50.762;4.470;2023-08-24T04:45:49;4.85;;;3.22;;
38972;SDS011;25333;50.762;4.470;2023-08-24T04:48:17;3.95;;;3.13;;
38972;SDS011;25333;50.762;4.470;2023-08-24T04:50:44;4.00;;;2.85;;
38972;SDS011;25333;50.762;4.470;2023-08-24T04:53:12;6.90;;;3.08;;
38972;SDS011;25333;50.762;4.470;2023-08-24T04:55:39;4.45;;;3.35;;
38972;SDS011;25333;50.762;4.470;2023-08-24T04:58:06;5.95;;;3.17;;
38972;SDS011;25333;50.762;4.470;2023-08-24T05:00:33;5.45;;;3.45;;
38972;SDS011;25333;50.762;4.470;2023-08-24T05:03:00;3.90;;;2.80;;
38972;SDS011;25333;50.762;4.470;2023-08-24T05:05:26;5.10;;;2.80;;
38972;SDS011;25333;50.762;4.470;2023-08-24T05:07:54;7.70;;;2.97;;
38972;SDS011;25333;50.762;4.470;2023-08-24T05:10:20;5.93;;;3.63;;
38972;SDS011;25333;50.762;4.470;2023-08-24T05:12:46;5.10;;;2.90;;
38972;SDS011;25333;50.762;4.470;2023-08-24T05:15:12;4.37;;;3.00;;
38972;SDS011;25333;50.762;4.470;2023-08-24T05:17:38;4.22;;;3.15;;
38972;SDS011;25333;50.762;4.470;2023-08-24T05:20:07;4.93;;;3.17;;
38972;SDS011;25333;50.762;4.470;2023-08-24T05:22:35;3.80;;;2.10;;
38972;SDS011;25333;50.762;4.470;2023-08-24T05:25:01;5.05;;;2.88;;
38972;SDS011;25333;50.762;4.470;2023-08-24T05:27:27;3.50;;;2.35;;
38972;SDS011;25333;50.762;4.470;2023-08-24T05:29:53;3.75;;;2.20;;
38972;SDS011;25333;50.762;4.470;2023-08-24T05:32:19;5.03;;;2.33;;
38972;SDS011;25333;50.762;4.470;2023-08-24T05:34:45;3.67;;;2.10;;
38972;SDS011;25333;50.762;4.470;2023-08-24T05:37:11;4.38;;;2.40;;
38972;SDS011;25333;50.762;4.470;2023-08-24T05:39:37;5.70;;;2.35;;
38972;SDS011;25333;50.762;4.470;2023-08-24T05:42:03;4.70;;;2.70;;
38972;SDS011;25333;50.762;4.470;2023-08-24T05:44:29;3.38;;;1.58;;
38972;SDS011;25333;50.762;4.470;2023-08-24T05:46:55;2.97;;;2.23;;
38972;SDS011;25333;50.762;4.470;2023-08-24T05:49:20;3.78;;;2.53;;
38972;SDS011;25333;50.762;4.470;2023-08-24T05:51:50;3.83;;;2.30;;
38972;SDS011;25333;50.762;4.470;2023-08-24T05:54:16;4.68;;;2.50;;
38972;SDS011;25333;50.762;4.470;2023-08-24T05:56:45;4.20;;;2.10;;
38972;SDS011;25333;50.762;4.470;2023-08-24T05:59:11;5.63;;;1.95;;
38972;SDS011;25333;50.762;4.470;2023-08-24T06:01:40;5.38;;;2.25;;
38972;SDS011;25333;50.762;4.470;2023-08-24T06:04:06;2.72;;;1.67;;
38972;SDS011;25333;50.762;4.470;2023-08-24T06:06:32;4.73;;;2.30;;
38972;SDS011;25333;50.762;4.470;2023-08-24T06:08:58;3.70;;;2.30;;
38972;SDS011;25333;50.762;4.470;2023-08-24T06:11:24;2.90;;;1.85;;
38972;SDS011;25333;50.762;4.470;2023-08-24T06:13:50;3.38;;;2.00;;
38972;SDS011;25333;50.762;4.470;2023-08-24T06:16:18;3.65;;;1.77;;
38972;SDS011;25333;50.762;4.470;2023-08-24T06:18:44;3.75;;;2.30;;
38972;SDS011;25333;50.762;4.470;2023-08-24T06:21:10;4.55;;;2.85;;
38972;SDS011;25333;50.762;4.470;2023-08-24T06:23:35;3.38;;;1.90;;
38972;SDS011;25333;50.762;4.470;2023-08-24T06:26:04;3.03;;;2.13;;
38972;SDS011;25333;50.762;4.470;2023-08-24T06:29:10;2.70;;;1.85;;
38972;SDS011;25333;50.762;4.470;2023-08-24T06:31:36;2.53;;;1.90;;
38972;SDS011;25333;50.762;4.470;2023-08-24T06:34:04;3.72;;;1.95;;
38972;SDS011;25333;50.762;4.470;2023-08-24T06:36:32;3.50;;;2.00;;
38972;SDS011;25333;50.762;4.470;2023-08-24T06:39:00;2.97;;;1.75;;
38972;SDS011;25333;50.762;4.470;2023-08-24T06:41:29;3.42;;;2.30;;
38972;SDS011;25333;50.762;4.470;2023-08-24T06:43:58;3.43;;;1.70;;
38972;SDS011;25333;50.762;4.470;2023-08-24T06:46:24;2.83;;;1.60;;
38972;SDS011;25333;50.762;4.470;2023-08-24T06:48:49;3.13;;;2.03;;
38972;SDS011;25333;50.762;4.470;2023-08-24T06:51:15;3.10;;;1.87;;
38972;SDS011;25333;50.762;4.470;2023-08-24T06:53:41;6.45;;;2.13;;
38972;SDS011;25333;50.762;4.470;2023-08-24T06:56:16;3.78;;;1.98;;
38972;SDS011;25333;50.762;4.470;2023-08-24T06:58:48;4.18;;;1.80;;
38972;SDS011;25333;50.762;4.470;2023-08-24T07:01:13;4.38;;;2.08;;
38972;SDS011;25333;50.762;4.470;2023-08-24T07:03:39;3.83;;;2.30;;
38972;SDS011;25333;50.762;4.470;2023-08-24T07:06:06;3.87;;;1.70;;
38972;SDS011;25333;50.762;4.470;2023-08-24T07:08:37;3.50;;;2.10;;
38972;SDS011;25333;50.762;4.470;2023-08-24T07:11:03;3.33;;;1.60;;
38972;SDS011;25333;50.762;4.470;2023-08-24T07:13:28;4.00;;;1.98;;
38972;SDS011;25333;50.762;4.470;2023-08-24T07:15:54;6.07;;;1.90;;
38972;SDS011;25333;50.762;4.470;2023-08-24T07:18:20;3.25;;;1.77;;
38972;SDS011;25333;50.762;4.470;2023-08-24T07:20:46;4.40;;;1.80;;
38972;SDS011;25333;50.762;4.470;2023-08-24T07:23:12;3.95;;;1.45;;
38972;SDS011;25333;50.762;4.470;2023-08-24T07:25:38;3.57;;;1.67;;
38972;SDS011;25333;50.762;4.470;2023-08-24T07:28:03;2.90;;;2.00;;
38972;SDS011;25333;50.762;4.470;2023-08-24T07:30:30;5.25;;;2.05;;
38972;SDS011;25333;50.762;4.470;2023-08-24T07:32:56;4.15;;;1.83;;
38972;SDS011;25333;50.762;4.470;2023-08-24T07:35:22;3.80;;;2.00;;
38972;SDS011;25333;50.762;4.470;2023-08-24T07:37:51;2.88;;;1.80;;
38972;SDS011;25333;50.762;4.470;2023-08-24T07:40:17;4.23;;;2.23;;
38972;SDS011;25333;50.762;4.470;2023-08-24T07:42:46;4.00;;;1.80;;
38972;SDS011;25333;50.762;4.470;2023-08-24T07:45:15;4.00;;;2.03;;
38972;SDS011;25333;50.762;4.470;2023-08-24T07:47:41;4.80;;;2.20;;
38972;SDS011;25333;50.762;4.470;2023-08-24T07:50:08;3.08;;;1.70;;
38972;SDS011;25333;50.762;4.470;2023-08-24T07:52:36;3.15;;;1.38;;
38972;SDS011;25333;50.762;4.470;2023-08-24T07:55:02;2.63;;;1.40;;
38972;SDS011;25333;50.762;4.470;2023-08-24T07:57:29;3.87;;;1.97;;
38972;SDS011;25333;50.762;4.470;2023-08-24T07:59:56;4.65;;;2.33;;
38972;SDS011;25333;50.762;4.470;2023-08-24T08:02:25;2.38;;;1.40;;
38972;SDS011;25333;50.762;4.470;2023-08-24T08:04:50;3.00;;;1.90;;
38972;SDS011;25333;50.762;4.470;2023-08-24T08:07:16;2.92;;;1.50;;
38972;SDS011;25333;50.762;4.470;2023-08-24T08:09:42;4.07;;;1.80;;
38972;SDS011;25333;50.762;4.470;2023-08-24T08:12:08;3.53;;;1.90;;
38972;SDS011;25333;50.762;4.470;2023-08-24T08:14:34;2.97;;;1.60;;
38972;SDS011;25333;50.762;4.470;2023-08-24T08:16:59;3.47;;;1.67;;
38972;SDS011;25333;50.762;4.470;2023-08-24T08:19:25;3.95;;;1.50;;
38972;SDS011;25333;50.762;4.470;2023-08-24T08:21:52;4.90;;;1.63;;
38972;SDS011;25333;50.762;4.470;2023-08-24T08:24:18;3.60;;;2.23;;
38972;SDS011;25333;50.762;4.470;2023-08-24T08:26:44;3.07;;;1.30;;
38972;SDS011;25333;50.762;4.470;2023-08-24T08:29:09;2.43;;;1.40;;
38972;SDS011;25333;50.762;4.470;2023-08-24T08:31:35;3.93;;;2.03;;
38972;SDS011;25333;50.762;4.470;2023-08-24T08:34:01;3.80;;;1.45;;
38972;SDS011;25333;50.762;4.470;2023-08-24T08:36:29;3.17;;;1.45;;
38972;SDS011;25333;50.762;4.470;2023-08-24T08:38:57;4.63;;;1.83;;
38972;SDS011;25333;50.762;4.470;2023-08-24T08:41:23;2.80;;;1.30;;
38972;SDS011;25333;50.762;4.470;2023-08-24T08:43:52;2.67;;;2.00;;
38972;SDS011;25333;50.762;4.470;2023-08-24T08:46:18;3.23;;;1.80;;
38972;SDS011;25333;50.762;4.470;2023-08-24T08:48:44;6.93;;;2.20;;
38972;SDS011;25333;50.762;4.470;2023-08-24T08:51:11;27.90;;;7.87;;
38972;SDS011;25333;50.762;4.470;2023-08-24T08:53:39;8.43;;;2.40;;
38972;SDS011;25333;50.762;4.470;2023-08-24T08:56:05;6.30;;;1.63;;
38972;SDS011;25333;50.762;4.470;2023-08-24T08:58:32;7.55;;;2.58;;
38972;SDS011;25333;50.762;4.470;2023-08-24T09:01:01;5.60;;;2.88;;
38972;SDS011;25333;50.762;4.470;2023-08-24T09:03:29;16.10;;;4.55;;
38972;SDS011;25333;50.762;4.470;2023-08-24T09:05:57;3.57;;;1.73;;
38972;SDS011;25333;50.762;4.470;2023-08-24T09:08:23;4.10;;;2.40;;
38972;SDS011;25333;50.762;4.470;2023-08-24T09:10:50;3.60;;;1.90;;
38972;SDS011;25333;50.762;4.470;2023-08-24T09:13:16;3.40;;;1.87;;
38972;SDS011;25333;50.762;4.470;2023-08-24T09:15:42;3.47;;;1.83;;
38972;SDS011;25333;50.762;4.470;2023-08-24T09:18:08;3.88;;;1.45;;
38972;SDS011;25333;50.762;4.470;2023-08-24T09:20:34;4.22;;;1.55;;
38972;SDS011;25333;50.762;4.470;2023-08-24T09:23:00;4.50;;;2.30;;
38972;SDS011;25333;50.762;4.470;2023-08-24T09:25:26;4.10;;;1.92;;
38972;SDS011;25333;50.762;4.470;2023-08-24T09:30:29;3.80;;;1.70;;
38972;SDS011;25333;50.762;4.470;2023-08-24T09:32:56;4.63;;;1.90;;
38972;SDS011;25333;50.762;4.470;2023-08-24T09:35:29;3.30;;;2.10;;
38972;SDS011;25333;50.762;4.470;2023-08-24T09:38:00;3.50;;;2.00;;
38972;SDS011;25333;50.762;4.470;2023-08-24T09:40:26;4.43;;;1.97;;
38972;SDS011;25333;50.762;4.470;2023-08-24T09:42:51;8.37;;;2.80;;
38972;SDS011;25333;50.762;4.470;2023-08-24T09:45:17;6.63;;;3.10;;
38972;SDS011;25333;50.762;4.470;2023-08-24T09:47:49;8.53;;;4.10;;
38972;SDS011;25333;50.762;4.470;2023-08-24T09:50:16;10.05;;;3.95;;
38972;SDS011;25333;50.762;4.470;2023-08-24T09:52:42;6.87;;;3.60;;
38972;SDS011;25333;50.762;4.470;2023-08-24T09:55:08;8.88;;;4.57;;
38972;SDS011;25333;50.762;4.470;2023-08-24T09:57:37;7.13;;;4.40;;
38972;SDS011;25333;50.762;4.470;2023-08-24T10:00:07;6.47;;;3.97;;
38972;SDS011;25333;50.762;4.470;2023-08-24T10:02:48;5.88;;;4.32;;
38972;SDS011;25333;50.762;4.470;2023-08-24T10:05:16;4.82;;;3.50;;
38972;SDS011;25333;50.762;4.470;2023-08-24T10:07:49;6.80;;;3.33;;
38972;SDS011;25333;50.762;4.470;2023-08-24T10:10:17;6.95;;;3.47;;
38972;SDS011;25333;50.762;4.470;2023-08-24T10:12:46;7.28;;;3.60;;
38972;SDS011;25333;50.762;4.470;2023-08-24T10:15:15;5.35;;;3.75;;
38972;SDS011;25333;50.762;4.470;2023-08-24T10:17:43;5.97;;;3.70;;
38972;SDS011;25333;50.762;4.470;2023-08-24T10:20:10;5.90;;;3.65;;
38972;SDS011;25333;50.762;4.470;2023-08-24T10:22:36;6.82;;;3.92;;
38972;SDS011;25333;50.762;4.470;2023-08-24T10:25:06;5.32;;;3.42;;
38972;SDS011;25333;50.762;4.470;2023-08-24T10:27:33;5.32;;;3.03;;
38972;SDS011;25333;50.762;4.470;2023-08-24T10:29:59;4.28;;;2.95;;
38972;SDS011;25333;50.762;4.470;2023-08-24T10:32:25;5.10;;;3.15;;
38972;SDS011;25333;50.762;4.470;2023-08-24T10:34:52;8.05;;;3.83;;
38972;SDS011;25333;50.762;4.470;2023-08-24T10:37:22;6.13;;;3.83;;
38972;SDS011;25333;50.762;4.470;2023-08-24T10:39:50;5.40;;;3.22;;
38972;SDS011;25333;50.762;4.470;2023-08-24T10:42:16;6.63;;;3.63;;
38972;SDS011;25333;50.762;4.470;2023-08-24T10:44:45;6.97;;;3.67;;
38972;SDS011;25333;50.762;4.470;2023-08-24T10:47:12;5.07;;;3.60;;
38972;SDS011;25333;50.762;4.470;2023-08-24T10:55:26;6.97;;;3.90;;
38972;SDS011;25333;50.762;4.470;2023-08-24T10:57:56;4.82;;;3.63;;
38972;SDS011;25333;50.762;4.470;2023-08-24T11:00:25;5.95;;;3.70;;
38972;SDS011;25333;50.762;4.470;2023-08-24T11:02:55;7.65;;;4.05;;
38972;SDS011;25333;50.762;4.470;2023-08-24T11:05:25;5.93;;;4.30;;
38972;SDS011;25333;50.762;4.470;2023-08-24T11:10:23;5.47;;;3.73;;
38972;SDS011;25333;50.762;4.470;2023-08-24T11:15:44;7.90;;;5.25;;
38972;SDS011;25333;50.762;4.470;2023-08-24T11:18:12;5.30;;;4.07;;
38972;SDS011;25333;50.762;4.470;2023-08-24T11:20:39;6.93;;;4.13;;
38972;SDS011;25333;50.762;4.470;2023-08-24T11:23:09;6.63;;;4.97;;
38972;SDS011;25333;50.762;4.470;2023-08-24T11:25:35;6.60;;;4.72;;
38972;SDS011;25333;50.762;4.470;2023-08-24T11:28:02;6.35;;;4.60;;
38972;SDS011;25333;50.762;4.470;2023-08-24T11:30:29;5.25;;;4.63;;
38972;SDS011;25333;50.762;4.470;2023-08-24T11:32:55;5.88;;;4.05;;
38972;SDS011;25333;50.762;4.470;2023-08-24T11:35:21;5.03;;;4.45;;
38972;SDS011;25333;50.762;4.470;2023-08-24T11:37:54;7.10;;;4.53;;
38972;SDS011;25333;50.762;4.470;2023-08-24T11:40:20;5.00;;;3.13;;
38972;SDS011;25333;50.762;4.470;2023-08-24T11:42:54;6.45;;;4.03;;
38972;SDS011;25333;50.762;4.470;2023-08-24T11:45:21;6.45;;;4.47;;
38972;SDS011;25333;50.762;4.470;2023-08-24T11:47:47;7.18;;;4.57;;
38972;SDS011;25333;50.762;4.470;2023-08-24T11:50:14;5.93;;;3.80;;
38972;SDS011;25333;50.762;4.470;2023-08-24T11:52:40;4.68;;;3.65;;
38972;SDS011;25333;50.762;4.470;2023-08-24T11:55:06;6.53;;;3.72;;
38972;SDS011;25333;50.762;4.470;2023-08-24T11:57:34;4.57;;;3.22;;
38972;SDS011;25333;50.762;4.470;2023-08-24T12:00:00;6.43;;;4.00;;
38972;SDS011;25333;50.762;4.470;2023-08-24T12:02:27;4.00;;;3.60;;
38972;SDS011;25333;50.762;4.470;2023-08-24T12:04:53;4.60;;;3.15;;
38972;SDS011;25333;50.762;4.470;2023-08-24T12:07:20;4.45;;;3.30;;
38972;SDS011;25333;50.762;4.470;2023-08-24T12:09:45;4.67;;;2.83;;
38972;SDS011;25333;50.762;4.470;2023-08-24T12:12:15;5.28;;;3.20;;
38972;SDS011;25333;50.762;4.470;2023-08-24T12:14:42;4.82;;;3.03;;
38972;SDS011;25333;50.762;4.470;2023-08-24T12:17:11;3.55;;;3.20;;
38972;SDS011;25333;50.762;4.470;2023-08-24T12:19:41;4.17;;;3.10;;
38972;SDS011;25333;50.762;4.470;2023-08-24T12:22:12;5.00;;;3.58;;
38972;SDS011;25333;50.762;4.470;2023-08-24T12:24:47;5.85;;;4.05;;
38972;SDS011;25333;50.762;4.470;2023-08-24T12:27:20;6.15;;;4.15;;
38972;SDS011;25333;50.762;4.470;2023-08-24T12:29:49;5.78;;;4.30;;
38972;SDS011;25333;50.762;4.470;2023-08-24T12:32:15;7.25;;;4.32;;
38972;SDS011;25333;50.762;4.470;2023-08-24T12:34:50;7.63;;;4.30;;
38972;SDS011;25333;50.762;4.470;2023-08-24T12:37:19;5.90;;;3.92;;
38972;SDS011;25333;50.762;4.470;2023-08-24T12:39:48;8.63;;;5.00;;
38972;SDS011;25333;50.762;4.470;2023-08-24T12:42:14;5.03;;;4.53;;
38972;SDS011;25333;50.762;4.470;2023-08-24T12:44:40;6.88;;;4.93;;
38972;SDS011;25333;50.762;4.470;2023-08-24T12:47:06;5.90;;;4.13;;
38972;SDS011;25333;50.762;4.470;2023-08-24T12:49:32;6.00;;;4.28;;
38972;SDS011;25333;50.762;4.470;2023-08-24T12:52:15;5.18;;;3.47;;
38972;SDS011;25333;50.762;4.470;2023-08-24T12:54:41;6.03;;;3.88;;
38972;SDS011;25333;50.762;4.470;2023-08-24T12:57:09;5.05;;;3.15;;
38972;SDS011;25333;50.762;4.470;2023-08-24T12:59:42;4.28;;;3.22;;
38972;SDS011;25333;50.762;4.470;2023-08-24T13:02:14;6.65;;;3.35;;
38972;SDS011;25333;50.762;4.470;2023-08-24T13:07:28;4.47;;;3.17;;
38972;SDS011;25333;50.762;4.470;2023-08-24T13:10:17;5.57;;;2.78;;
38972;SDS011;25333;50.762;4.470;2023-08-24T13:13:11;8.00;;;3.38;;
38972;SDS011;25333;50.762;4.470;2023-08-24T13:15:44;5.22;;;2.78;;
38972;SDS011;25333;50.762;4.470;2023-08-24T13:18:10;4.47;;;3.28;;
38972;SDS011;25333;50.762;4.470;2023-08-24T13:20:53;4.22;;;2.45;;
38972;SDS011;25333;50.762;4.470;2023-08-24T13:23:22;3.70;;;2.38;;
38972;SDS011;25333;50.762;4.470;2023-08-24T13:25:47;4.40;;;2.40;;
38972;SDS011;25333;50.762;4.470;2023-08-24T13:28:24;4.63;;;2.03;;
38972;SDS011;25333;50.762;4.470;2023-08-24T13:30:50;6.18;;;2.15;;
38972;SDS011;25333;50.762;4.470;2023-08-24T13:33:22;5.55;;;2.50;;
38972;SDS011;25333;50.762;4.470;2023-08-24T13:35:48;4.78;;;2.13;;
38972;SDS011;25333;50.762;4.470;2023-08-24T13:38:14;4.73;;;1.70;;
38972;SDS011;25333;50.762;4.470;2023-08-24T13:40:42;8.93;;;2.17;;
38972;SDS011;25333;50.762;4.470;2023-08-24T13:43:17;3.67;;;2.07;;
38972;SDS011;25333;50.762;4.470;2023-08-24T13:45:45;4.55;;;1.70;;
38972;SDS011;25333;50.762;4.470;2023-08-24T13:48:13;3.25;;;1.67;;
38972;SDS011;25333;50.762;4.470;2023-08-24T13:50:52;3.67;;;1.50;;
38972;SDS011;25333;50.762;4.470;2023-08-24T13:53:18;5.32;;;1.98;;
38972;SDS011;25333;50.762;4.470;2023-08-24T13:55:44;5.40;;;1.85;;
38972;SDS011;25333;50.762;4.470;2023-08-24T13:58:13;3.55;;;1.48;;
38972;SDS011;25333;50.762;4.470;2023-08-24T14:00:39;3.08;;;1.15;;
38972;SDS011;25333;50.762;4.470;2023-08-24T14:03:05;3.83;;;1.47;;
38972;SDS011;25333;50.762;4.470;2023-08-24T14:05:30;2.83;;;1.13;;
38972;SDS011;25333;50.762;4.470;2023-08-24T14:07:56;4.67;;;1.77;;
38972;SDS011;25333;50.762;4.470;2023-08-24T14:10:21;5.13;;;1.67;;
38972;SDS011;25333;50.762;4.470;2023-08-24T14:12:48;2.90;;;1.67;;
38972;SDS011;25333;50.762;4.470;2023-08-24T14:15:14;3.25;;;1.27;;
38972;SDS011;25333;50.762;4.470;2023-08-24T14:17:40;3.85;;;1.50;;
38972;SDS011;25333;50.762;4.470;2023-08-24T14:20:05;3.55;;;1.50;;
38972;SDS011;25333;50.762;4.470;2023-08-24T14:22:33;4.07;;;1.67;;
38972;SDS011;25333;50.762;4.470;2023-08-24T14:24:59;5.10;;;1.40;;
38972;SDS011;25333;50.762;4.470;2023-08-24T14:27:25;4.03;;;1.17;;
38972;SDS011;25333;50.762;4.470;2023-08-24T14:29:50;1.90;;;0.90;;
38972;SDS011;25333;50.762;4.470;2023-08-24T14:32:16;1.95;;;1.08;;
38972;SDS011;25333;50.762;4.470;2023-08-24T14:34:42;3.22;;;1.40;;
38972;SDS011;25333;50.762;4.470;2023-08-24T14:37:08;5.67;;;1.47;;
38972;SDS011;25333;50.762;4.470;2023-08-24T14:39:34;2.85;;;1.27;;
38972;SDS011;25333;50.762;4.470;2023-08-24T14:41:59;1.65;;;0.80;;
38972;SDS011;25333;50.762;4.470;2023-08-24T14:44:27;3.00;;;0.88;;
38972;SDS011;25333;50.762;4.470;2023-08-24T14:46:53;3.30;;;0.95;;
38972;SDS011;25333;50.762;4.470;2023-08-24T14:49:19;3.30;;;1.17;;
38972;SDS011;25333;50.762;4.470;2023-08-24T14:51:45;1.90;;;0.73;;
38972;SDS011;25333;50.762;4.470;2023-08-24T14:54:11;2.10;;;0.90;;
38972;SDS011;25333;50.762;4.470;2023-08-24T14:56:39;2.47;;;1.00;;
38972;SDS011;25333;50.762;4.470;2023-08-24T14:59:05;3.28;;;0.88;;
38972;SDS011;25333;50.762;4.470;2023-08-24T15:01:30;2.05;;;0.73;;
38972;SDS011;25333;50.762;4.470;2023-08-24T15:03:56;1.52;;;0.70;;
38972;SDS011;25333;50.762;4.470;2023-08-24T15:06:22;2.20;;;0.63;;
38972;SDS011;25333;50.762;4.470;2023-08-24T15:08:48;1.60;;;0.70;;
38972;SDS011;25333;50.762;4.470;2023-08-24T15:11:14;1.63;;;0.70;;
38972;SDS011;25333;50.762;4.470;2023-08-24T15:13:42;2.63;;;0.83;;
38972;SDS011;25333;50.762;4.470;2023-08-24T15:16:08;2.53;;;0.60;;